createdAt,value
2023-04-15T00:02:28.181Z,11.87
2023-04-15T00:05:33.736Z,10.95
2023-04-15T00:08:48.368Z,8.60
2023-04-15T00:11:53.988Z,9.83
2023-04-15T00:15:06.785Z,10.40
2023-04-15T00:18:12.828Z,9.73
2023-04-15T00:21:17.515Z,10.35
2023-04-15T00:24:21.317Z,10.43
2023-04-15T00:27:25.388Z,10.35
2023-04-15T00:30:30.321Z,11.40
2023-04-15T00:33:34.800Z,11.07
2023-04-15T00:36:45.430Z,10.38
2023-04-15T00:39:51.222Z,9.27
2023-04-15T00:43:05.508Z,9.40
2023-04-15T00:46:13.707Z,12.23
2023-04-15T00:49:25.417Z,9.57
2023-04-15T00:52:28.849Z,10.52
2023-04-15T00:55:34.451Z,9.70
2023-04-15T00:58:46.100Z,12.18
2023-04-15T01:01:51.482Z,10.55
2023-04-15T01:05:02.290Z,9.20
2023-04-15T01:11:24.466Z,10.65
2023-04-15T01:14:28.249Z,9.77
2023-04-15T01:17:32.242Z,11.18
2023-04-15T01:20:38.715Z,12.52
2023-04-15T01:23:54.378Z,10.27
2023-04-15T01:26:59.868Z,8.77
2023-04-15T01:30:05.376Z,9.00
2023-04-15T01:33:08.586Z,9.07
2023-04-15T01:36:12.254Z,8.23
2023-04-15T01:39:17.897Z,10.70
2023-04-15T01:42:22.857Z,8.50
2023-04-15T01:45:24.850Z,11.57
2023-04-15T01:48:30.876Z,9.80
2023-04-15T01:51:33.180Z,9.77
2023-04-15T01:54:35.753Z,9.65
2023-04-15T01:57:49.277Z,11.73
2023-04-15T02:01:01.471Z,9.27
2023-04-15T02:04:15.028Z,8.27
2023-04-15T02:07:20.298Z,10.03
2023-04-15T02:10:24.745Z,8.68
2023-04-15T02:13:35.472Z,8.77
2023-04-15T02:16:41.359Z,10.47
2023-04-15T02:19:47.363Z,8.35
2023-04-15T02:22:53.100Z,7.78
2023-04-15T02:25:58.444Z,9.27
2023-04-15T02:29:03.121Z,9.77
2023-04-15T02:32:08.033Z,9.20
2023-04-15T02:35:19.876Z,8.48
2023-04-15T02:38:24.359Z,8.30
2023-04-15T02:41:29.225Z,8.95
2023-04-15T02:44:43.501Z,9.30
2023-04-15T02:47:50.136Z,9.40
2023-04-15T02:50:54.514Z,11.43
2023-04-15T02:54:00.639Z,11.20
2023-04-15T02:57:07.497Z,8.35
2023-04-15T03:00:12.290Z,11.38
2023-04-15T03:03:17.352Z,10.63
2023-04-15T03:06:28.987Z,7.78
2023-04-15T03:09:35.501Z,10.07
2023-04-15T03:12:49.756Z,9.32
2023-04-15T03:15:57.793Z,12.80
2023-04-15T03:19:10.750Z,10.80
2023-04-15T03:22:17.038Z,9.73
2023-04-15T03:25:22.891Z,12.23
2023-04-15T03:28:30.413Z,10.13
2023-04-15T03:31:37.712Z,10.40
2023-04-15T03:34:43.802Z,8.90
2023-04-15T03:37:59.326Z,9.38
2023-04-15T03:41:04.052Z,9.23
2023-04-15T03:44:18.384Z,12.90
2023-04-15T03:47:23.349Z,10.45
2023-04-15T03:50:27.244Z,8.73
2023-04-15T03:53:31.460Z,10.23
2023-04-15T03:56:34.034Z,12.35
2023-04-15T03:59:40.482Z,12.45
2023-04-15T04:02:48.702Z,8.82
2023-04-15T04:05:54.470Z,9.52
2023-04-15T04:09:01.213Z,8.75
2023-04-15T04:12:06.681Z,12.23
2023-04-15T04:15:30.101Z,8.80
2023-04-15T04:18:35.329Z,9.82
2023-04-15T04:21:48.555Z,10.53
2023-04-15T04:24:54.741Z,11.32
2023-04-15T04:31:21.006Z,9.02
2023-04-15T04:34:33.782Z,9.27
2023-04-15T04:37:39.387Z,11.35
2023-04-15T04:40:47.064Z,10.65
2023-04-15T04:43:52.124Z,10.53
2023-04-15T04:47:00.571Z,12.10
2023-04-15T04:50:05.327Z,9.00
2023-04-15T04:53:11.280Z,9.10
2023-04-15T04:56:18.118Z,9.18
2023-04-15T04:59:29.867Z,10.60
2023-04-15T05:02:32.986Z,13.00
2023-04-15T05:05:45.128Z,13.85
2023-04-15T05:08:51.196Z,10.70
2023-04-15T05:11:53.522Z,12.50
2023-04-15T05:14:56.678Z,12.03
2023-04-15T05:18:01.026Z,11.70
2023-04-15T05:21:12.495Z,8.98
2023-04-15T05:24:17.619Z,7.63
2023-04-15T05:27:23.420Z,8.35
2023-04-15T05:30:27.771Z,7.70
2023-04-15T05:33:29.382Z,7.88
2023-04-15T05:36:42.211Z,10.57
2023-04-15T05:39:47.171Z,8.07
2023-04-15T05:42:52.196Z,10.20
2023-04-15T05:45:57.671Z,8.93
2023-04-15T05:49:02.808Z,8.32
2023-04-15T05:52:06.345Z,7.55
2023-04-15T05:55:10.060Z,8.20
2023-04-15T05:58:16.481Z,8.20
2023-04-15T06:01:24.894Z,8.27
2023-04-15T06:04:36.471Z,8.70
2023-04-15T06:07:42.195Z,7.70
2023-04-15T06:10:46.713Z,7.80
2023-04-15T06:13:50.622Z,7.82
2023-04-15T06:16:54.920Z,6.47
2023-04-15T06:20:01.329Z,6.53
2023-04-15T06:23:06.736Z,6.10
2023-04-15T06:26:10.813Z,5.77
2023-04-15T06:29:21.677Z,6.30
2023-04-15T06:32:26.943Z,6.47
2023-04-15T06:35:32.912Z,9.40
2023-04-15T06:38:37.812Z,7.85
2023-04-15T06:41:43.373Z,6.97
2023-04-15T06:44:45.043Z,6.97
2023-04-15T06:47:49.531Z,6.63
2023-04-15T06:50:55.340Z,7.10
2023-04-15T06:54:00.573Z,6.43
2023-04-15T06:57:11.630Z,8.80
2023-04-15T07:00:16.693Z,6.20
2023-04-15T07:03:22.526Z,6.03
2023-04-15T07:06:25.119Z,7.22
2023-04-15T07:09:31.355Z,6.25
2023-04-15T07:12:49.437Z,5.85
2023-04-15T07:15:53.364Z,8.65
2023-04-15T07:18:58.870Z,6.30
2023-04-15T07:22:02.627Z,6.68
2023-04-15T07:25:14.767Z,8.40
2023-04-15T07:28:20.374Z,5.80
2023-04-15T07:31:23.558Z,6.65
2023-04-15T07:34:29.031Z,8.75
2023-04-15T07:37:33.703Z,6.40
2023-04-15T07:40:35.710Z,7.45
2023-04-15T07:43:51.070Z,9.30
2023-04-15T07:46:55.126Z,6.10
2023-04-15T07:50:05.777Z,6.03
2023-04-15T07:53:09.185Z,6.00
2023-04-15T07:56:16.340Z,6.80
2023-04-15T07:59:21.263Z,9.07
2023-04-15T08:02:27.311Z,6.45
2023-04-15T08:05:31.633Z,7.32
2023-04-15T08:08:43.553Z,7.55
2023-04-15T08:11:55.465Z,7.07
2023-04-15T08:15:08.285Z,5.80
2023-04-15T08:18:13.806Z,6.15
2023-04-15T08:21:21.173Z,7.53
2023-04-15T08:24:27.268Z,7.13
2023-04-15T08:27:30.149Z,8.95
2023-04-15T08:30:32.463Z,9.57
2023-04-15T08:33:45.382Z,7.28
2023-04-15T08:36:50.848Z,6.63
2023-04-15T08:40:01.720Z,6.43
2023-04-15T08:43:10.394Z,7.07
2023-04-15T08:46:23.329Z,8.00
2023-04-15T08:49:36.790Z,7.00
2023-04-15T08:52:40.533Z,7.57
2023-04-15T08:56:02.446Z,9.48
2023-04-15T08:59:08.105Z,7.93
2023-04-15T09:02:23.117Z,7.73
2023-04-15T09:05:27.609Z,7.47
2023-04-15T09:08:30.717Z,7.95
2023-04-15T09:11:33.754Z,9.55
2023-04-15T09:14:44.707Z,6.55
2023-04-15T09:17:51.153Z,7.85
2023-04-15T09:21:02.694Z,8.00
2023-04-15T09:24:08.387Z,7.13
2023-04-15T09:27:13.483Z,8.05
2023-04-15T09:30:19.732Z,10.73
2023-04-15T09:33:30.718Z,7.70
2023-04-15T09:36:57.492Z,7.95
2023-04-15T09:40:03.072Z,6.63
2023-04-15T09:43:09.092Z,7.68
2023-04-15T09:46:12.355Z,9.88
2023-04-15T09:49:18.520Z,7.53
2023-04-15T09:52:24.801Z,9.73
2023-04-15T09:55:33.366Z,8.63
2023-04-15T09:58:39.823Z,9.82
2023-04-15T10:01:46.257Z,8.52
2023-04-15T10:04:57.930Z,10.00
2023-04-15T10:08:13.893Z,7.82
2023-04-15T10:11:20.273Z,7.90
2023-04-15T10:14:26.036Z,9.20
2023-04-15T10:17:39.688Z,9.40
2023-04-15T10:20:58.723Z,9.70
2023-04-15T10:24:10.276Z,8.52
2023-04-15T10:27:14.518Z,7.83
2023-04-15T10:30:26.868Z,8.27
2023-04-15T10:33:32.721Z,10.27
2023-04-15T10:36:38.328Z,9.57
2023-04-15T10:39:43.601Z,8.85
2023-04-15T10:42:47.641Z,10.18
2023-04-15T10:46:01.449Z,9.30
2023-04-15T10:49:18.665Z,10.98
2023-04-15T10:52:29.296Z,9.70
2023-04-15T10:55:39.289Z,9.63
2023-04-15T10:58:51.777Z,10.87
2023-04-15T11:02:03.211Z,9.38
2023-04-15T11:05:07.938Z,10.40
2023-04-15T11:08:18.776Z,12.03
2023-04-15T11:11:23.170Z,9.93
2023-04-15T11:14:27.659Z,12.20
2023-04-15T11:17:30.207Z,8.90
2023-04-15T11:20:39.749Z,6.95
2023-04-15T11:23:49.704Z,5.22
2023-04-15T11:27:04.808Z,5.00
2023-04-15T11:30:31.868Z,6.00
2023-04-15T11:33:45.523Z,4.50
2023-04-15T11:36:51.081Z,5.63
2023-04-15T11:39:55.183Z,5.37
2023-04-15T11:43:21.496Z,6.35
2023-04-15T11:46:33.236Z,5.03
2023-04-15T11:49:41.523Z,4.85
2023-04-15T11:53:01.720Z,4.95
2023-04-15T11:56:07.962Z,4.47
2023-04-15T11:59:09.785Z,5.10
2023-04-15T12:02:16.543Z,5.30
2023-04-15T12:05:22.218Z,6.47
2023-04-15T12:08:25.911Z,6.15
2023-04-15T12:11:55.104Z,6.47
2023-04-15T12:14:59.441Z,8.00
2023-04-15T12:18:03.242Z,7.50
2023-04-15T12:21:12.171Z,7.22
2023-04-15T12:24:23.654Z,9.27
2023-04-15T12:27:35.857Z,7.28
2023-04-15T12:31:02.730Z,7.85
2023-04-15T12:34:15.363Z,7.10
2023-04-15T12:37:19.515Z,7.25
2023-04-15T12:40:22.945Z,7.75
2023-04-15T12:43:27.694Z,9.43
2023-04-15T12:46:32.246Z,9.55
2023-04-15T12:49:37.941Z,9.15
2023-04-15T12:52:43.298Z,8.48
2023-04-15T12:55:57.776Z,7.75
2023-04-15T12:59:01.009Z,10.95
2023-04-15T13:02:05.676Z,8.10
2023-04-15T13:05:11.201Z,8.63
2023-04-15T13:08:15.596Z,10.55
2023-04-15T13:11:22.884Z,9.45
2023-04-15T13:14:27.864Z,7.30
2023-04-15T13:17:33.393Z,6.93
2023-04-15T13:20:37.781Z,7.53
2023-04-15T13:23:43.590Z,8.60
2023-04-15T13:26:50.238Z,8.27
2023-04-15T13:30:00.928Z,7.32
2023-04-15T13:33:05.502Z,6.97
2023-04-15T13:36:09.503Z,7.63
2023-04-15T13:39:11.779Z,6.25
2023-04-15T13:42:24.778Z,6.70
2023-04-15T13:48:47.718Z,8.43
2023-04-15T13:52:00.402Z,7.93
2023-04-15T13:55:18.315Z,7.63
2023-04-15T13:58:25.970Z,7.40
2023-04-15T14:01:39.832Z,6.88
2023-04-15T14:04:43.790Z,8.43
2023-04-15T14:07:46.781Z,7.40
2023-04-15T14:10:52.164Z,7.43
2023-04-15T14:13:58.106Z,12.95
2023-04-15T14:17:02.219Z,11.53
2023-04-15T14:20:18.975Z,9.38
2023-04-15T14:23:22.946Z,9.73
2023-04-15T14:26:28.573Z,9.55
2023-04-15T14:29:33.942Z,7.80
2023-04-15T14:32:44.997Z,7.32
2023-04-15T14:35:57.429Z,7.95
2023-04-15T14:39:00.797Z,6.70
2023-04-15T14:42:05.315Z,8.18
2023-04-15T14:45:09.504Z,7.88
2023-04-15T14:48:12.718Z,9.50
2023-04-15T14:51:24.920Z,9.43
2023-04-15T14:54:28.265Z,9.25
2023-04-15T14:57:31.576Z,8.65
2023-04-15T15:00:36.249Z,7.53
2023-04-15T15:03:41.508Z,6.82
2023-04-15T15:06:45.468Z,7.65
2023-04-15T15:09:54.723Z,7.93
2023-04-15T15:13:07.389Z,8.13
2023-04-15T15:16:14.812Z,5.70
2023-04-15T15:19:19.347Z,7.43
2023-04-15T15:22:25.069Z,6.43
2023-04-15T15:25:31.789Z,6.85
2023-04-15T15:28:46.416Z,6.90
2023-04-15T15:31:50.973Z,8.15
2023-04-15T15:34:58.232Z,7.15
2023-04-15T15:38:01.657Z,9.73
2023-04-15T15:41:05.721Z,6.87
2023-04-15T15:44:07.888Z,7.00
2023-04-15T15:47:10.485Z,8.23
2023-04-15T15:50:15.699Z,10.37
2023-04-15T15:53:22.451Z,6.45
2023-04-15T15:56:34.654Z,7.55
2023-04-15T15:59:41.219Z,6.75
2023-04-15T16:03:04.362Z,6.55
2023-04-15T16:06:23.141Z,10.50
2023-04-15T16:09:27.515Z,7.70
2023-04-15T16:12:29.605Z,6.90
2023-04-15T16:15:31.878Z,8.35
2023-04-15T16:18:36.109Z,10.88
2023-04-15T16:21:42.065Z,8.27
2023-04-15T16:24:53.995Z,8.93
2023-04-15T16:28:08.545Z,8.27
2023-04-15T16:31:19.198Z,9.50
2023-04-15T16:34:21.495Z,7.93
2023-04-15T16:37:25.052Z,10.68
2023-04-15T16:40:29.488Z,8.15
2023-04-15T16:43:33.303Z,9.00
2023-04-15T16:46:36.366Z,9.25
2023-04-15T16:49:42.540Z,8.45
2023-04-15T16:52:45.644Z,9.67
2023-04-15T16:55:48.633Z,11.05
2023-04-15T16:58:53.054Z,11.38
2023-04-15T17:01:59.642Z,10.93
2023-04-15T17:05:01.888Z,11.35
2023-04-15T17:08:07.085Z,15.27
2023-04-15T17:11:08.644Z,15.23
2023-04-15T17:14:10.971Z,12.67
2023-04-15T17:17:13.035Z,12.43
2023-04-15T17:20:17.762Z,13.63
2023-04-15T17:23:24.342Z,14.07
2023-04-15T17:26:27.901Z,11.93
2023-04-15T17:29:32.120Z,13.23
2023-04-15T17:32:40.359Z,13.18
2023-04-15T17:35:44.639Z,11.68
2023-04-15T17:38:46.934Z,13.57
2023-04-15T17:41:59.005Z,16.10
2023-04-15T17:45:14.023Z,20.23
2023-04-15T17:48:20.028Z,14.75
2023-04-15T17:51:22.071Z,15.48
2023-04-15T17:54:23.796Z,14.10
2023-04-15T17:57:26.063Z,14.15
2023-04-15T18:00:30.082Z,15.43
2023-04-15T18:03:38.272Z,19.55
2023-04-15T18:06:48.862Z,19.13
2023-04-15T18:09:52.254Z,14.50
2023-04-15T18:12:55.909Z,16.75
2023-04-15T18:15:59.506Z,16.13
2023-04-15T18:19:04.348Z,19.05
2023-04-15T18:22:07.813Z,12.20
2023-04-15T18:25:11.273Z,10.87
2023-04-15T18:28:14.781Z,9.13
2023-04-15T18:31:19.076Z,10.48
2023-04-15T18:34:21.772Z,9.52
2023-04-15T18:37:24.774Z,13.43
2023-04-15T18:40:29.644Z,16.15
2023-04-15T18:43:33.034Z,9.85
2023-04-15T18:46:35.780Z,8.73
2023-04-15T18:49:39.088Z,8.70
2023-04-15T18:52:41.142Z,11.25
2023-04-15T18:55:45.405Z,10.77
2023-04-15T18:59:08.576Z,7.95
2023-04-15T19:02:10.944Z,8.82
2023-04-15T19:05:12.748Z,17.00
2023-04-15T19:08:15.372Z,8.60
2023-04-15T19:11:17.780Z,7.80
2023-04-15T19:14:19.996Z,10.82
2023-04-15T19:17:21.653Z,7.93
2023-04-15T19:20:24.037Z,7.97
2023-04-15T19:23:25.808Z,8.40
2023-04-15T19:26:30.730Z,9.43
2023-04-15T19:29:33.776Z,7.35
2023-04-15T19:32:36.143Z,8.05
2023-04-15T19:35:41.250Z,7.82
2023-04-15T19:38:43.815Z,10.13
2023-04-15T19:41:45.813Z,11.50
2023-04-15T19:44:49.593Z,8.70
2023-04-15T19:47:54.645Z,9.13
2023-04-15T19:50:57.745Z,9.60
2023-04-15T19:54:01.351Z,9.15
2023-04-15T19:57:08.565Z,8.80
2023-04-15T20:00:13.774Z,8.90
2023-04-15T20:03:20.825Z,9.27
2023-04-15T20:06:24.650Z,8.73
2023-04-15T20:09:47.759Z,9.02
2023-04-15T20:12:53.407Z,9.30
2023-04-15T20:15:55.491Z,9.40
2023-04-15T20:25:40.581Z,8.43
2023-04-15T20:28:43.212Z,7.60
2023-04-15T20:31:45.096Z,7.97
2023-04-15T20:34:50.820Z,7.75
2023-04-15T20:37:55.500Z,6.70
2023-04-15T20:40:58.217Z,6.88
2023-04-15T20:43:59.889Z,7.32
2023-04-15T20:47:01.998Z,6.75
2023-04-15T20:50:04.098Z,6.87
2023-04-15T20:53:06.159Z,6.93
2023-04-15T20:56:08.234Z,6.85
2023-04-15T20:59:10.295Z,7.87
2023-04-15T21:02:12.095Z,8.15
2023-04-15T21:05:13.811Z,8.82
2023-04-15T21:08:16.082Z,8.07
2023-04-15T21:11:36.874Z,7.45
2023-04-15T21:14:42.489Z,7.53
2023-04-15T21:17:44.040Z,7.03
2023-04-15T21:20:46.484Z,6.93
2023-04-15T21:23:50.947Z,6.68
2023-04-15T21:26:53.808Z,5.65
2023-04-15T21:29:56.092Z,6.17
2023-04-15T21:32:58.186Z,6.00
2023-04-15T21:35:59.831Z,7.60
2023-04-15T21:39:02.591Z,6.25
2023-04-15T21:42:04.268Z,6.50
2023-04-15T21:45:07.575Z,5.07
2023-04-15T21:48:09.719Z,6.15
2023-04-15T21:51:12.617Z,6.63
2023-04-15T21:54:14.654Z,5.68
2023-04-15T21:57:16.722Z,5.53
2023-04-15T22:00:21.148Z,5.97
2023-04-15T22:03:24.586Z,5.50
2023-04-15T22:06:27.069Z,6.22
2023-04-15T22:09:28.956Z,6.82
2023-04-15T22:12:31.328Z,7.47
2023-04-15T22:15:32.943Z,6.72
2023-04-15T22:18:35.015Z,6.75
2023-04-15T22:21:37.003Z,7.57
2023-04-15T22:24:40.437Z,7.18
2023-04-15T22:27:42.833Z,8.57
2023-04-15T22:30:44.863Z,7.43
2023-04-15T22:33:46.847Z,7.85
2023-04-15T22:36:52.029Z,6.53
2023-04-15T22:39:56.619Z,6.80
2023-04-15T22:42:58.196Z,6.30
2023-04-15T22:46:01.357Z,7.10
2023-04-15T22:49:04.020Z,6.70
2023-04-15T22:52:05.888Z,7.13
2023-04-15T22:55:08.630Z,7.25
2023-04-15T22:58:11.040Z,7.93
2023-04-15T23:01:17.439Z,7.40
2023-04-15T23:04:25.151Z,7.63
2023-04-15T23:07:29.525Z,7.20
2023-04-15T23:10:31.762Z,7.22
2023-04-15T23:13:35.688Z,8.48
2023-04-15T23:16:37.832Z,8.73
2023-04-15T23:19:39.509Z,8.35
2023-04-15T23:22:43.042Z,9.43
2023-04-15T23:25:45.142Z,8.82
2023-04-15T23:28:47.165Z,8.27
2023-04-15T23:31:48.834Z,9.33
2023-04-15T23:34:52.618Z,9.40
2023-04-15T23:37:54.609Z,8.10
2023-04-15T23:40:56.297Z,8.50
2023-04-15T23:43:58.856Z,9.18
2023-04-15T23:47:01.014Z,9.23
2023-04-15T23:50:03.627Z,9.30
2023-04-15T23:53:05.211Z,8.90
2023-04-15T23:56:07.054Z,7.80
2023-04-15T23:59:09.207Z,8.43
